Time;durP1;ratioP1;P1;durP2;ratioP2;P2;SDS_P1;SDS_P2;PMS_P1;PMS_P2;Temp;Humidity;BMP_temperature;BMP_pressure;BME280_temperature;BME280_humidity;BME280_pressure;Samples;Min_cycle;Max_cycle;Signal;HPM_P1;HPM_P2
2022/10/08 00:01:41;;;;;;;20.23;8.95;;;;;;;8.72;84.83;101491.41;1739999;82;21009;-67
2022/10/08 00:04:11;;;;;;;22.65;10.63;;;;;;;8.72;84.62;101489.19;1750152;81;21073;-67
2022/10/08 00:06:41;;;;;;;18.87;10.95;;;;;;;8.68;84.58;101475.50;1743244;81;20994;-67
2022/10/08 00:09:11;;;;;;;23.50;11.75;;;;;;;8.67;84.54;101483.34;1746961;81;21539;-70
2022/10/08 00:11:56;;;;;;;27.82;11.65;;;;;;;8.66;84.67;101479.75;1746686;82;21007;-68
2022/10/08 00:14:25;;;;;;;22.13;10.88;;;;;;;8.68;84.60;101475.50;1739335;82;21045;-68
2022/10/08 00:16:55;;;;;;;23.32;11.90;;;;;;;8.65;84.47;101477.18;1736716;82;21058;-69
2022/10/08 00:19:26;;;;;;;25.23;12.18;;;;;;;8.64;84.55;101472.22;1733276;82;21010;-68
2022/10/08 00:21:57;;;;;;;26.48;12.88;;;;;;;8.64;84.50;101471.37;1753228;81;21482;-67
2022/10/08 00:24:27;;;;;;;25.37;12.53;;;;;;;8.63;84.37;101471.02;1728461;82;21003;-68
2022/10/08 00:26:58;;;;;;;25.95;12.35;;;;;;;8.59;84.21;101470.48;1733702;82;20994;-67
2022/10/08 00:29:27;;;;;;;26.60;10.85;;;;;;;8.57;84.13;101461.58;1738911;80;21109;-67
2022/10/08 00:31:56;;;;;;;26.10;11.08;;;;;;;8.56;84.09;101469.42;1738553;80;21058;-68
2022/10/08 00:34:26;;;;;;;23.42;11.20;;;;;;;8.52;84.10;101463.42;1729500;82;21080;-67
2022/10/08 00:36:55;;;;;;;23.30;12.20;;;;;;;8.49;84.21;101448.72;1729428;82;21013;-69
2022/10/08 00:39:25;;;;;;;26.02;10.65;;;;;;;8.43;84.19;101456.14;1739764;82;21038;-67
2022/10/08 00:41:54;;;;;;;22.48;10.82;;;;;;;8.37;84.37;101449.09;1732685;82;21029;-67
2022/10/08 00:44:56;;;;;;;20.00;10.00;;;;;;;8.38;84.54;101449.45;1752933;81;21030;-68
2022/10/08 00:47:45;;;;;;;24.92;10.70;;;;;;;8.36;84.58;101449.60;1729988;81;21368;-67
2022/10/08 00:50:20;;;;;;;21.50;11.03;;;;;;;8.33;84.64;101434.89;1739755;82;21490;-68
2022/10/08 00:52:57;;;;;;;21.20;9.40;;;;;;;8.29;84.77;101436.19;1739225;81;21033;-69
2022/10/08 00:55:28;;;;;;;23.12;9.03;;;;;;;8.28;84.84;101433.97;1742254;82;21053;-68
2022/10/08 00:58:04;;;;;;;19.35;9.85;;;;;;;8.24;84.77;101424.38;1744200;81;21454;-68
2022/10/08 01:00:33;;;;;;;19.37;9.53;;;;;;;8.23;84.92;101425.40;1752423;82;21212;-68
2022/10/08 01:03:05;;;;;;;22.22;10.05;;;;;;;8.24;85.05;101423.02;1751759;82;21478;-68
2022/10/08 01:05:53;;;;;;;28.02;9.75;;;;;;;8.27;85.07;101427.30;1733984;82;21105;-68
2022/10/08 01:08:34;;;;;;;22.40;9.80;;;;;;;8.30;84.99;101422.89;1741140;81;21510;-68
2022/10/08 01:11:29;;;;;;;20.00;9.65;;;;;;;8.30;84.76;101426.98;1729638;82;21439;-69
2022/10/08 01:14:31;;;;;;;22.17;12.45;;;;;;;8.26;84.77;101427.81;1736060;81;21082;-68
2022/10/08 01:17:48;;;;;;;25.85;13.32;;;;;;;8.26;84.87;101418.77;1751214;81;21065;-70
2022/10/08 01:20:53;;;;;;;26.90;12.45;;;;;;;8.25;84.83;101419.27;1735194;82;21026;-69
2022/10/08 01:23:43;;;;;;;25.50;12.60;;;;;;;8.26;84.88;101414.66;1737233;82;21083;-70
2022/10/08 01:26:39;;;;;;;31.85;12.30;;;;;;;8.28;84.76;101419.46;1739483;82;21051;-66
2022/10/08 01:29:33;;;;;;;24.95;11.22;;;;;;;8.26;84.62;101416.03;1728354;82;21042;-69
2022/10/08 01:32:06;;;;;;;25.82;11.22;;;;;;;8.22;84.63;101416.00;1737455;82;21042;-68
2022/10/08 01:34:51;;;;;;;21.95;10.00;;;;;;;8.18;84.64;101419.55;1742121;81;20986;-68
2022/10/08 01:37:30;;;;;;;22.80;9.73;;;;;;;8.16;84.73;101411.16;1739418;81;21077;-69
2022/10/08 01:40:03;;;;;;;18.67;9.35;;;;;;;8.18;84.68;101425.52;1699324;84;21090;-68
2022/10/08 01:42:34;;;;;;;19.65;9.65;;;;;;;8.14;84.59;101414.56;1739754;82;20986;-68
2022/10/08 01:45:06;;;;;;;23.55;9.70;;;;;;;8.11;84.66;101415.73;1743855;81;21121;-69
2022/10/08 01:47:38;;;;;;;19.32;9.70;;;;;;;8.11;84.70;101420.34;1750995;81;20991;-69
2022/10/08 01:50:13;;;;;;;21.87;9.55;;;;;;;8.12;84.77;101417.95;1751083;81;21042;-68
2022/10/08 01:52:49;;;;;;;19.07;8.30;;;;;;;8.09;84.63;101414.17;1735334;81;21013;-68
2022/10/08 01:55:30;;;;;;;17.27;8.30;;;;;;;8.06;84.59;101423.53;1751197;82;21077;-68
2022/10/08 01:58:04;;;;;;;20.62;8.50;;;;;;;8.02;84.61;101422.64;1742680;81;21485;-68
2022/10/08 02:00:34;;;;;;;16.48;7.83;;;;;;;7.96;84.72;101428.22;1736104;81;21465;-69
2022/10/08 02:03:04;;;;;;;16.80;8.10;;;;;;;7.94;84.94;101428.38;1735031;82;20983;-67
2022/10/08 02:05:35;;;;;;;18.65;8.50;;;;;;;7.93;85.04;101418.47;1736142;81;20994;-68
2022/10/08 02:08:05;;;;;;;19.27;8.30;;;;;;;7.92;85.09;101424.94;1732551;82;21500;-68
2022/10/08 02:10:35;;;;;;;18.90;8.30;;;;;;;7.91;85.09;101427.32;1749912;81;21487;-68
2022/10/08 02:13:04;;;;;;;19.05;7.97;;;;;;;7.87;85.01;101420.45;1740337;82;21046;-67
2022/10/08 02:15:44;;;;;;;17.57;9.13;;;;;;;7.87;85.01;101416.87;1746347;81;21011;-68
2022/10/08 02:18:17;;;;;;;14.55;8.10;;;;;;;7.83;85.00;101420.92;1748326;82;21002;-68
2022/10/08 02:20:58;;;;;;;23.83;8.53;;;;;;;7.81;85.13;101421.08;1741066;82;21085;-67
2022/10/08 02:23:45;;;;;;;17.25;8.08;;;;;;;7.81;85.19;101417.49;1735615;82;20991;-69
2022/10/08 02:26:19;;;;;;;20.72;7.97;;;;;;;7.81;85.19;101414.25;1735434;82;21023;-68
2022/10/08 02:29:02;;;;;;;13.40;7.70;;;;;;;7.79;85.21;101417.61;1751271;81;21057;-68
2022/10/08 02:31:42;;;;;;;16.10;7.42;;;;;;;7.79;85.27;101417.61;1751251;82;21066;-68
2022/10/08 02:34:34;;;;;;;16.97;7.00;;;;;;;7.84;85.26;101418.55;1739208;82;21018;-68
2022/10/08 02:37:15;;;;;;;18.82;7.85;;;;;;;7.83;85.14;101417.69;1732445;82;21061;-67
2022/10/08 02:39:58;;;;;;;16.82;7.78;;;;;;;7.83;85.07;101417.69;1740664;82;21018;-68
2022/10/08 02:42:29;;;;;;;17.62;7.60;;;;;;;7.83;85.08;101418.19;1739827;81;21069;-67
2022/10/08 02:45:15;;;;;;;16.00;7.78;;;;;;;7.84;85.05;101415.31;1741808;82;21067;-68
2022/10/08 02:47:46;;;;;;;15.85;7.70;;;;;;;7.85;85.00;101412.93;1682159;84;21074;-68
2022/10/08 02:50:19;;;;;;;18.82;8.03;;;;;;;7.87;84.95;101417.73;1666074;86;21458;-67
2022/10/08 02:52:50;;;;;;;17.00;8.70;;;;;;;7.88;84.87;101422.17;1676512;84;21069;-68
2022/10/08 02:55:40;;;;;;;16.37;8.35;;;;;;;7.86;84.78;101414.65;1659642;86;21065;-68
2022/10/08 02:58:10;;;;;;;16.50;8.03;;;;;;;7.86;84.64;101422.83;1660124;86;21067;-67
2022/10/08 03:00:57;;;;;;;19.10;7.72;;;;;;;7.85;84.42;101423.84;1631257;87;22368;-67
2022/10/08 03:03:34;;;;;;;13.70;7.17;;;;;;;7.80;84.33;101416.63;1632688;87;21553;-68
2022/10/08 03:06:07;;;;;;;17.92;7.40;;;;;;;7.78;84.33;101423.22;1634407;86;21057;-68
2022/10/08 03:08:45;;;;;;;18.40;8.15;;;;;;;7.75;84.32;101417.57;1637859;87;21051;-68
2022/10/08 03:11:14;;;;;;;18.17;8.15;;;;;;;7.72;84.36;101416.52;1688313;83;21494;-68
2022/10/08 03:13:46;;;;;;;21.48;8.43;;;;;;;7.70;84.38;101424.50;1744776;82;21007;-68
2022/10/08 03:16:19;;;;;;;22.13;8.00;;;;;;;7.66;84.48;101419.00;1748673;81;21541;-69
2022/10/08 03:18:50;;;;;;;20.05;7.70;;;;;;;7.64;84.61;101409.61;1753209;80;21421;-67
2022/10/08 03:21:20;;;;;;;17.52;8.10;;;;;;;7.66;84.69;101418.50;1736640;82;21053;-69
2022/10/08 03:23:49;;;;;;;17.40;8.33;;;;;;;7.66;84.69;101419.86;1730789;82;21010;-68
2022/10/08 03:26:19;;;;;;;20.82;7.78;;;;;;;7.67;84.71;101416.13;1738915;82;21022;-68
2022/10/08 03:28:48;;;;;;;16.85;7.40;;;;;;;7.64;84.77;101417.80;1735184;82;21459;-68
2022/10/08 03:31:17;;;;;;;19.80;7.75;;;;;;;7.64;84.86;101413.70;1732621;80;21069;-69
2022/10/08 03:33:55;;;;;;;16.82;6.85;;;;;;;7.64;84.81;101414.56;1729386;82;20970;-67
2022/10/08 03:36:24;;;;;;;16.62;7.12;;;;;;;7.66;84.85;101413.04;1740538;81;20991;-67
2022/10/08 03:38:53;;;;;;;19.42;8.20;;;;;;;7.67;84.80;101417.48;1753238;81;21492;-69
2022/10/08 03:41:22;;;;;;;13.93;6.42;;;;;;;7.66;84.74;101417.13;1733491;82;21030;-68
2022/10/08 03:43:54;;;;;;;15.50;7.47;;;;;;;7.64;84.67;101414.56;1747570;82;21523;-67
2022/10/08 03:46:24;;;;;;;16.00;6.83;;;;;;;7.63;84.68;101411.98;1739434;80;21085;-68
2022/10/08 03:48:53;;;;;;;14.75;6.65;;;;;;;7.60;84.60;101412.29;1735065;82;21415;-67
2022/10/08 03:51:24;;;;;;;15.68;6.70;;;;;;;7.57;84.51;101416.69;1743093;82;21045;-69
2022/10/08 03:53:54;;;;;;;13.58;7.22;;;;;;;7.57;84.58;101409.87;1748162;82;21033;-67
2022/10/08 03:56:24;;;;;;;15.23;6.58;;;;;;;7.57;84.59;101412.60;1729706;82;21519;-68
2022/10/08 03:58:58;;;;;;;16.20;7.47;;;;;;;7.56;84.64;101419.06;1681882;85;21486;-67
2022/10/08 04:01:27;;;;;;;14.95;6.65;;;;;;;7.57;84.59;101410.73;1691891;85;21050;-67
2022/10/08 04:03:58;;;;;;;15.32;6.75;;;;;;;7.58;84.55;101413.81;1682048;85;21095;-68
2022/10/08 04:06:27;;;;;;;11.83;6.70;;;;;;;7.59;84.58;101409.22;1689240;83;21056;-68
2022/10/08 04:09:00;;;;;;;13.43;7.35;;;;;;;7.59;84.61;101416.03;1681748;85;21506;-68
2022/10/08 04:11:29;;;;;;;16.25;7.17;;;;;;;7.57;84.60;101409.37;1684353;83;21043;-67
2022/10/08 04:14:00;;;;;;;14.23;7.28;;;;;;;7.54;84.52;101408.81;1681645;83;21556;-67
2022/10/08 04:16:29;;;;;;;16.87;7.12;;;;;;;7.47;84.62;101409.94;1679243;83;21126;-68
2022/10/08 04:18:58;;;;;;;13.30;6.30;;;;;;;7.46;84.71;101412.81;1680916;84;21127;-68
2022/10/08 04:21:31;;;;;;;14.15;7.03;;;;;;;7.47;84.81;101411.30;1663894;85;21023;-68
2022/10/08 04:24:03;;;;;;;11.08;6.22;;;;;;;7.48;84.82;101408.92;1681146;83;21059;-67
2022/10/08 04:26:32;;;;;;;14.73;7.00;;;;;;;7.46;84.81;101412.81;1688354;85;21035;-68
2022/10/08 04:29:02;;;;;;;13.68;6.83;;;;;;;7.46;84.86;101418.27;1690882;85;21071;-67
2022/10/08 04:31:31;;;;;;;13.48;7.10;;;;;;;7.42;84.89;101417.72;1681639;85;21047;-69
2022/10/08 04:34:01;;;;;;;13.60;6.60;;;;;;;7.43;84.94;101411.76;1679659;83;21031;-67
2022/10/08 04:36:31;;;;;;;13.00;6.37;;;;;;;7.47;84.99;101420.84;1664233;85;21022;-68
2022/10/08 04:39:01;;;;;;;15.48;6.40;;;;;;;7.50;84.93;101422.41;1704914;83;21501;-66
2022/10/08 04:41:31;;;;;;;16.30;7.20;;;;;;;7.47;84.89;101415.39;1703070;82;21127;-67
2022/10/08 04:44:01;;;;;;;15.90;7.03;;;;;;;7.45;84.91;101415.19;1691722;83;21066;-67
2022/10/08 04:46:30;;;;;;;15.00;7.42;;;;;;;7.45;85.01;101414.68;1691659;83;21533;-69
2022/10/08 04:49:01;;;;;;;18.05;7.80;;;;;;;7.47;85.08;101418.12;1691868;84;21126;-67
2022/10/08 04:51:32;;;;;;;18.12;7.35;;;;;;;7.48;85.11;101414.88;1691617;83;21102;-68
2022/10/08 04:54:01;;;;;;;15.95;7.08;;;;;;;7.49;85.14;101417.96;1691629;83;21092;-68
2022/10/08 04:56:33;;;;;;;20.35;7.00;;;;;;;7.49;85.21;101417.96;1691572;83;21489;-68
2022/10/08 04:59:03;;;;;;;12.73;6.33;;;;;;;7.52;85.29;101417.66;1691741;85;21046;-69
2022/10/08 05:01:33;;;;;;;16.85;6.70;;;;;;;7.51;85.42;101418.67;1691796;85;21065;-69
2022/10/08 05:04:03;;;;;;;15.55;6.62;;;;;;;7.55;85.51;101414.62;1691750;85;21094;-68
2022/10/08 05:06:34;;;;;;;19.77;7.70;;;;;;;7.57;85.49;101421.64;1691641;83;21067;-68
2022/10/08 05:09:04;;;;;;;17.17;8.05;;;;;;;7.59;85.43;101411.94;1691686;83;21067;-69
2022/10/08 05:11:34;;;;;;;20.12;9.48;;;;;;;7.60;85.41;101423.20;1665167;85;21071;-68
2022/10/08 05:14:04;;;;;;;17.55;8.83;;;;;;;7.63;85.50;101417.44;1691727;85;21075;-67
2022/10/08 05:16:34;;;;;;;16.40;7.55;;;;;;;7.66;85.48;101419.86;1691806;83;21129;-67
2022/10/08 05:19:05;;;;;;;23.42;8.55;;;;;;;7.68;85.47;101423.30;1691820;83;21058;-67
2022/10/08 05:21:36;;;;;;;18.32;9.68;;;;;;;7.69;85.48;101419.55;1691591;83;21507;-67
2022/10/08 05:24:07;;;;;;;23.73;11.33;;;;;;;7.70;85.55;101414.95;1691803;85;21564;-68
2022/10/08 05:26:38;;;;;;;25.65;12.30;;;;;;;7.73;85.65;101414.64;1691597;85;21524;-68
2022/10/08 05:29:12;;;;;;;25.57;12.98;;;;;;;7.79;85.70;101414.88;1688151;85;21526;-68
2022/10/08 05:31:43;;;;;;;26.45;13.28;;;;;;;7.84;85.69;101415.81;1691804;83;21087;-67
2022/10/08 05:34:13;;;;;;;31.77;12.43;;;;;;;7.88;85.68;101413.98;1691698;83;21082;-68
2022/10/08 05:36:43;;;;;;;25.92;13.68;;;;;;;7.97;85.69;101409.97;1691674;85;21580;-67
2022/10/08 05:39:13;;;;;;;26.07;13.68;;;;;;;8.04;85.69;101409.19;1691663;83;21070;-69
2022/10/08 05:41:44;;;;;;;27.95;13.65;;;;;;;8.12;85.76;101406.53;1691805;83;21043;-70
2022/10/08 05:44:15;;;;;;;30.27;14.33;;;;;;;8.19;85.77;101398.06;1691751;83;21118;-69
2022/10/08 05:46:45;;;;;;;31.85;12.10;;;;;;;8.26;85.80;101403.74;1691775;83;21090;-68
2022/10/08 05:49:21;;;;;;;24.05;11.50;;;;;;;8.32;85.81;101403.62;1691646;84;21086;-68
2022/10/08 05:51:51;;;;;;;24.12;10.75;;;;;;;8.35;85.87;101405.56;1691655;85;21109;-68
2022/10/08 05:54:21;;;;;;;22.95;10.98;;;;;;;8.43;85.94;101406.13;1691896;83;21043;-67
2022/10/08 05:56:51;;;;;;;26.73;12.35;;;;;;;8.50;86.02;101406.73;1691516;83;21568;-68
2022/10/08 05:59:22;;;;;;;23.62;11.95;;;;;;;8.56;86.13;101408.82;1691622;84;21543;-67
2022/10/08 06:01:52;;;;;;;27.07;13.08;;;;;;;8.63;86.16;101409.55;1691639;83;21062;-69
2022/10/08 06:04:21;;;;;;;25.72;11.78;;;;;;;8.70;86.20;101412.84;1691738;83;21047;-68
2022/10/08 06:06:51;;;;;;;30.02;13.53;;;;;;;8.77;86.18;101411.18;1691790;83;21150;-69
2022/10/08 06:09:21;;;;;;;27.80;13.15;;;;;;;8.86;86.15;101397.91;1691653;83;21070;-68
2022/10/08 06:11:52;;;;;;;31.25;13.50;;;;;;;8.94;86.14;101398.97;1691683;84;21086;-67
2022/10/08 06:14:23;;;;;;;30.97;12.82;;;;;;;9.01;86.14;101402.26;1691630;83;21063;-68
2022/10/08 06:16:53;;;;;;;26.55;12.25;;;;;;;9.08;86.21;101401.95;1691562;83;21118;-69
2022/10/08 06:19:25;;;;;;;27.77;11.48;;;;;;;9.14;86.24;101391.76;1624341;88;21074;-68
2022/10/08 06:21:55;;;;;;;29.00;11.38;;;;;;;9.21;86.29;101386.48;1624410;88;21022;-69
2022/10/08 06:24:25;;;;;;;25.37;11.20;;;;;;;9.29;86.46;101388.39;1624556;87;21098;-69
2022/10/08 06:26:56;;;;;;;23.85;10.28;;;;;;;9.35;86.65;101385.00;1624429;88;21098;-69
2022/10/08 06:29:26;;;;;;;23.42;11.20;;;;;;;9.41;86.80;101385.19;1624628;88;21439;-70
2022/10/08 06:31:55;;;;;;;24.77;10.18;;;;;;;9.47;86.91;101379.56;1624507;88;21066;-69
2022/10/08 06:34:25;;;;;;;22.10;9.40;;;;;;;9.53;87.00;101376.16;1624567;86;21066;-71
2022/10/08 06:36:55;;;;;;;15.23;7.58;;;;;;;9.61;87.08;101382.16;1639802;85;21019;-70
2022/10/08 06:39:24;;;;;;;13.40;6.40;;;;;;;9.66;87.18;101386.11;1681647;85;21035;-69
2022/10/08 06:41:53;;;;;;;16.80;6.25;;;;;;;9.77;87.27;101384.45;1664093;85;21055;-68
2022/10/08 06:44:23;;;;;;;14.05;5.35;;;;;;;9.87;87.29;101383.44;1680815;85;21117;-68
2022/10/08 06:46:53;;;;;;;14.10;5.00;;;;;;;9.98;87.18;101381.74;1691575;85;21047;-68
2022/10/08 06:49:25;;;;;;;10.68;5.17;;;;;;;10.07;86.93;101379.35;1691632;85;21071;-69
2022/10/08 06:51:55;;;;;;;13.65;5.58;;;;;;;10.18;86.66;101374.91;1691615;84;21075;-68
2022/10/08 06:54:26;;;;;;;17.15;5.58;;;;;;;10.29;86.37;101374.59;1691461;85;21070;-68
2022/10/08 06:56:56;;;;;;;15.75;5.00;;;;;;;10.39;86.10;101373.89;1691801;85;21071;-69
2022/10/08 06:59:25;;;;;;;15.50;5.35;;;;;;;10.48;85.75;101375.63;1691675;83;21103;-69
2022/10/08 07:01:55;;;;;;;16.07;4.90;;;;;;;10.58;85.37;101376.81;1691830;84;21107;-68
2022/10/08 07:04:25;;;;;;;17.37;4.75;;;;;;;10.68;84.97;101376.11;1691455;83;21490;-69
2022/10/08 07:06:56;;;;;;;16.70;4.40;;;;;;;10.78;84.62;101374.02;1691529;83;21099;-69
2022/10/08 07:12:09;;;;;;;9.98;4.25;;;;;;;10.97;83.86;101370.55;1691392;85;21039;-69
2022/10/08 07:14:39;;;;;;;13.88;4.40;;;;;;;11.07;83.42;101373.97;1692888;83;21051;-69
2022/10/08 07:17:10;;;;;;;11.95;4.42;;;;;;;11.15;83.00;101367.59;1692287;85;21046;-69
2022/10/08 07:19:39;;;;;;;8.90;3.92;;;;;;;11.23;82.53;101367.55;1679583;85;21083;-68
2022/10/08 07:22:10;;;;;;;10.53;4.47;;;;;;;11.30;82.12;101359.80;1691841;85;21090;-69
2022/10/08 07:24:41;;;;;;;15.78;5.50;;;;;;;11.38;81.81;101364.39;1679582;83;21054;-68
2022/10/08 07:27:11;;;;;;;12.63;4.97;;;;;;;11.44;81.52;101358.19;1682119;84;21093;-67
2022/10/08 07:29:40;;;;;;;10.05;4.70;;;;;;;11.50;81.29;101349.23;1699740;84;21462;-69
2022/10/08 07:32:10;;;;;;;11.08;4.22;;;;;;;11.56;81.07;101349.03;1753407;82;21038;-68
2022/10/08 07:34:40;;;;;;;18.07;4.72;;;;;;;11.61;80.76;101340.58;1744815;81;21066;-69
2022/10/08 07:37:10;;;;;;;12.53;4.17;;;;;;;11.67;80.61;101342.60;1750763;80;21007;-68
2022/10/08 07:39:40;;;;;;;14.58;4.92;;;;;;;11.73;80.53;101339.16;1753091;82;21753;-70
2022/10/08 07:42:10;;;;;;;10.72;4.60;;;;;;;11.80;80.49;101332.97;1745851;81;21060;-68
2022/10/08 07:44:41;;;;;;;10.13;4.50;;;;;;;11.99;80.84;101337.97;1743330;82;21094;-68
2022/10/08 07:47:11;;;;;;;12.47;4.62;;;;;;;12.42;80.74;101335.55;1741693;81;21025;-68
2022/10/08 07:49:40;;;;;;;8.90;4.33;;;;;;;12.96;79.60;101335.63;1748639;82;21046;-69
2022/10/08 07:52:10;;;;;;;11.38;4.83;;;;;;;13.56;77.79;101325.42;1745756;82;21090;-67
2022/10/08 07:54:39;;;;;;;18.30;6.35;;;;;;;14.14;75.92;101329.00;1749154;82;21029;-69
2022/10/08 07:57:09;;;;;;;14.90;5.78;;;;;;;14.65;74.04;101317.27;1747462;82;21011;-68
2022/10/08 07:59:38;;;;;;;13.95;5.22;;;;;;;15.21;71.02;101326.31;1744048;82;21095;-67
2022/10/08 08:02:08;;;;;;;12.75;4.37;;;;;;;15.70;68.01;101316.13;1743377;82;21088;-73
2022/10/08 08:04:38;;;;;;;14.53;4.90;;;;;;;16.16;66.61;101312.05;1747702;82;21463;-74
2022/10/08 08:07:08;;;;;;;13.93;4.80;;;;;;;16.56;65.66;101304.61;1753310;82;21022;-73
2022/10/08 08:09:37;;;;;;;11.85;4.83;;;;;;;17.01;64.13;101303.39;1753336;82;21494;-73
2022/10/08 08:12:07;;;;;;;9.08;5.10;;;;;;;17.48;61.68;101306.81;1729594;81;21074;-71
2022/10/08 08:14:37;;;;;;;8.33;3.83;;;;;;;17.84;60.21;101298.77;1723657;83;20986;-70
2022/10/08 08:17:07;;;;;;;8.33;4.28;;;;;;;18.13;57.88;101291.72;1725276;82;21022;-72
2022/10/08 08:19:39;;;;;;;7.62;3.67;;;;;;;18.38;56.87;101292.59;1732470;82;21078;-73
2022/10/08 08:22:08;;;;;;;11.10;3.37;;;;;;;18.67;56.18;101296.61;1685739;84;21085;-71
2022/10/08 08:24:38;;;;;;;11.00;3.52;;;;;;;18.96;53.77;101300.60;1696852;84;21026;-73
2022/10/08 08:27:07;;;;;;;12.15;3.08;;;;;;;19.04;52.10;101290.27;1737924;82;21031;-74
2022/10/08 08:29:36;;;;;;;9.58;3.92;;;;;;;19.06;51.40;101290.34;1685081;84;21062;-71
2022/10/08 08:32:07;;;;;;;10.93;4.10;;;;;;;18.96;50.89;101288.10;1688005;84;21446;-73
2022/10/08 08:34:37;;;;;;;9.75;3.80;;;;;;;18.81;51.12;101285.37;1693033;84;21519;-73
2022/10/08 08:37:06;;;;;;;14.65;4.03;;;;;;;18.69;51.51;101286.12;1677756;84;21095;-74
2022/10/08 08:39:35;;;;;;;11.57;3.67;;;;;;;18.69;51.73;101279.19;1686583;84;21038;-73
2022/10/08 08:42:29;;;;;;;9.05;3.37;;;;;;;18.66;51.56;101281.58;1685735;84;21034;-71
2022/10/08 08:45:08;;;;;;;11.15;3.72;;;;;;;18.54;51.12;101281.45;1698645;84;21073;-74
2022/10/08 08:47:45;;;;;;;13.70;6.05;;;;;;;18.28;51.33;101277.54;1684056;84;21025;-73
2022/10/08 08:50:29;;;;;;;11.55;4.62;;;;;;;18.05;51.65;101278.98;1680737;84;21030;-73
2022/10/08 08:52:58;;;;;;;11.90;3.62;;;;;;;17.89;52.27;101267.59;1688773;84;21021;-72
2022/10/08 08:55:40;;;;;;;7.50;3.00;;;;;;;17.72;53.04;101275.06;1729652;82;21091;-73
2022/10/08 08:58:43;;;;;;;8.65;2.87;;;;;;;17.63;53.00;101261.66;1730290;82;21099;-70
2022/10/08 09:01:38;;;;;;;6.95;3.22;;;;;;;17.49;53.85;101262.79;1731621;82;21059;-73
2022/10/08 09:04:25;;;;;;;17.65;3.95;;;;;;;17.38;54.40;101256.03;1734984;82;21510;-71
2022/10/08 09:06:55;;;;;;;8.83;3.55;;;;;;;17.26;54.40;101254.50;1691745;84;21495;-74
2022/10/08 09:09:50;;;;;;;7.35;3.00;;;;;;;17.18;54.31;101248.36;1688600;84;21677;-74
2022/10/08 09:12:28;;;;;;;5.40;2.45;;;;;;;17.14;54.31;101246.56;1675455;85;21125;-73
2022/10/08 09:14:59;;;;;;;5.28;2.65;;;;;;;17.11;54.35;101238.70;1739581;82;21062;-74
2022/10/08 09:17:36;;;;;;;4.25;2.40;;;;;;;17.05;54.39;101236.81;1729992;82;21509;-73
2022/10/08 09:20:05;;;;;;;6.03;2.62;;;;;;;16.97;54.22;101235.14;1735290;82;21504;-74
2022/10/08 09:22:38;;;;;;;5.85;2.95;;;;;;;16.93;54.54;101233.03;1729635;82;21066;-71
2022/10/08 09:25:19;;;;;;;4.00;2.17;;;;;;;16.88;54.47;101227.27;1733711;82;21500;-74
2022/10/08 09:27:54;;;;;;;5.62;2.30;;;;;;;16.85;54.73;101231.33;1719495;82;21026;-74
2022/10/08 09:30:38;;;;;;;5.65;2.30;;;;;;;16.82;54.08;101222.08;1737971;82;21518;-74
2022/10/08 09:33:16;;;;;;;9.03;3.67;;;;;;;16.79;54.23;101222.52;1735814;82;21050;-74
2022/10/08 09:35:51;;;;;;;7.22;3.05;;;;;;;16.75;55.18;101216.56;1727032;82;21069;-75
2022/10/08 09:38:22;;;;;;;7.33;2.80;;;;;;;16.74;55.37;101216.25;1739139;82;21010;-74
2022/10/08 09:41:18;;;;;;;8.78;2.87;;;;;;;16.73;55.17;101213.17;1725516;82;21007;-71
2022/10/08 09:44:14;;;;;;;10.15;3.33;;;;;;;16.69;55.20;101207.75;1719881;82;21047;-75
2022/10/08 09:46:44;;;;;;;6.47;3.27;;;;;;;16.66;55.69;101205.42;1738632;82;21015;-76
2022/10/08 09:49:30;;;;;;;6.87;2.87;;;;;;;16.63;56.08;101201.67;1745733;82;21478;-73
2022/10/08 09:52:18;;;;;;;9.48;3.20;;;;;;;16.63;56.10;101207.21;1738983;82;21035;-74
2022/10/08 09:54:50;;;;;;;8.03;2.90;;;;;;;16.61;56.20;101203.81;1738605;82;21116;-74
2022/10/08 09:57:20;;;;;;;7.62;2.60;;;;;;;16.62;56.13;101201.89;1734998;82;21062;-75
2022/10/08 09:59:56;;;;;;;7.53;2.95;;;;;;;16.62;55.95;101199.13;1737407;82;21071;-75
2022/10/08 10:02:34;;;;;;;7.75;2.83;;;;;;;16.63;56.17;101191.99;1736109;82;21019;-75
2022/10/08 10:05:05;;;;;;;;;;;;;;;16.63;56.16;101190.61;1731876;82;21495;-73
2022/10/08 10:07:41;;;;;;;8.83;3.10;;;;;;;16.65;55.92;101187.12;1736122;82;20280;-75
2022/10/08 10:10:38;;;;;;;5.00;2.65;;;;;;;16.62;56.30;101186.14;1742002;82;21137;-72
2022/10/08 10:13:20;;;;;;;5.12;2.67;;;;;;;16.61;56.28;101181.67;1746403;81;21053;-75
2022/10/08 10:16:01;;;;;;;8.05;3.47;;;;;;;16.56;56.18;101171.80;1729432;82;21030;-74
2022/10/08 10:18:37;;;;;;;8.38;3.20;;;;;;;16.54;56.43;101162.86;1746080;82;21504;-72
2022/10/08 10:21:12;;;;;;;6.75;3.08;;;;;;;16.51;56.33;101161.92;1731607;82;21053;-75
2022/10/08 10:23:45;;;;;;;9.10;3.00;;;;;;;16.49;56.32;101159.91;1725957;82;21460;-76
2022/10/08 10:26:18;;;;;;;7.97;2.98;;;;;;;16.45;56.40;101153.95;1748982;82;21050;-76
2022/10/08 10:29:01;;;;;;;13.20;3.08;;;;;;;16.45;56.30;101148.95;1749119;82;21025;-73
2022/10/08 10:32:01;;;;;;;8.05;3.10;;;;;;;16.46;56.22;101137.67;1749052;82;21054;-74
2022/10/08 10:34:35;;;;;;;6.62;2.70;;;;;;;16.50;56.17;101138.09;1749500;81;21526;-76
2022/10/08 10:37:09;;;;;;;7.97;2.95;;;;;;;16.48;56.26;101136.92;1730341;82;21034;-75
2022/10/08 10:39:46;;;;;;;7.20;2.92;;;;;;;16.48;56.10;101127.23;1748968;81;21022;-73
2022/10/08 10:42:29;;;;;;;8.73;3.12;;;;;;;16.48;56.10;101121.70;1750056;81;21091;-74
2022/10/08 10:45:09;;;;;;;8.83;2.98;;;;;;;16.51;55.91;101121.80;1750562;82;21042;-76
2022/10/08 10:47:39;;;;;;;8.30;2.83;;;;;;;16.55;55.57;101118.91;1748051;81;21034;-73
2022/10/08 10:50:18;;;;;;;5.78;2.65;;;;;;;16.59;55.35;101124.32;1729365;82;21020;-76
2022/10/08 10:53:01;;;;;;;10.23;3.40;;;;;;;16.61;54.90;101116.65;1750302;82;21079;-72
2022/10/08 10:55:52;;;;;;;7.92;2.90;;;;;;;16.61;55.11;101113.88;1719131;82;21096;-71
2022/10/08 10:58:49;;;;;;;8.98;2.90;;;;;;;16.60;54.70;101107.19;1736000;82;21006;-71
2022/10/08 11:02:05;;;;;;;6.05;2.30;;;;;;;16.60;54.57;101105.27;1735799;82;21138;-69
2022/10/08 11:04:45;;;;;;;7.28;2.40;;;;;;;16.63;54.54;101105.36;1749461;82;20991;-76
2022/10/08 11:07:32;;;;;;;7.85;3.22;;;;;;;16.67;54.31;101103.88;1731761;82;21112;-74
2022/10/08 11:10:32;;;;;;;11.28;4.60;;;;;;;16.69;54.21;101097.59;1749008;82;21035;-75
2022/10/08 11:13:26;;;;;;;6.87;3.35;;;;;;;16.66;54.02;101086.43;1746014;82;21038;-74
2022/10/08 11:16:27;;;;;;;14.05;3.27;;;;;;;16.65;54.17;101083.34;1749225;82;21682;-75
2022/10/08 11:18:59;;;;;;;6.20;3.00;;;;;;;16.63;54.08;101080.45;1747169;81;20987;-73
2022/10/08 11:21:45;;;;;;;5.87;2.92;;;;;;;16.63;54.41;101076.30;1744908;82;21038;-74
2022/10/08 11:24:22;;;;;;;6.22;2.83;;;;;;;16.63;54.42;101074.39;1744595;82;21222;-74
2022/10/08 11:27:10;;;;;;;7.15;2.83;;;;;;;16.64;54.02;101066.40;1745272;82;21052;-73
2022/10/08 11:30:12;;;;;;;7.40;3.25;;;;;;;16.68;54.07;101059.39;1734251;81;20991;-75
2022/10/08 11:32:44;;;;;;;8.98;3.45;;;;;;;16.71;53.80;101053.41;1746351;82;21021;-77
2022/10/08 11:35:48;;;;;;;4.67;2.77;;;;;;;16.75;53.32;101045.50;1747351;82;21027;-74
2022/10/08 11:38:26;;;;;;;8.03;3.47;;;;;;;16.77;53.13;101047.52;1747522;82;21076;-72
2022/10/08 11:40:59;;;;;;;8.58;4.45;;;;;;;16.77;53.07;101041.45;1750799;81;21046;-73
2022/10/08 11:43:42;;;;;;;7.83;3.40;;;;;;;16.83;53.05;101031.94;1747014;81;21013;-74
2022/10/08 11:46:29;;;;;;;7.33;2.80;;;;;;;16.86;52.71;101037.02;1730754;82;21061;-70
2022/10/08 11:49:17;;;;;;;9.48;3.30;;;;;;;16.87;52.70;101038.72;1747005;82;21026;-69
2022/10/08 11:51:50;;;;;;;6.62;2.83;;;;;;;16.84;52.84;101030.86;1750729;82;21160;-71
2022/10/08 11:55:05;;;;;;;;;;;;;;;;;;;;;
2022/10/08 11:57:35;;;;;;;8.80;2.75;;;;;;;16.84;52.59;101022.03;1742027;81;21021;-72
2022/10/08 12:00:30;;;;;;;9.70;2.90;;;;;;;16.87;52.17;101020.19;1742907;82;21429;-74
2022/10/08 12:03:04;;;;;;;10.72;6.50;;;;;;;16.91;51.67;101019.24;1737781;82;21464;-74
2022/10/08 12:05:53;;;;;;;39.37;24.57;;;;;;;16.93;51.64;101022.63;1732774;82;21057;-74